Time;durP1;ratioP1;P1;durP2;ratioP2;P2;SDS_P1;SDS_P2;PMS_P1;PMS_P2;Temp;Humidity;BMP_temperature;BMP_pressure;BME280_temperature;BME280_humidity;BME280_pressure;Samples;Min_cycle;Max_cycle;Signal;HPM_P1;HPM_P2
2021/05/23 00:02:03;;;;;;;18.42;15.23;;;22.60;52.50;;;;;;4815844;54;21920;-39
2021/05/23 00:07:07;;;;;;;17.15;14.95;;;22.60;52.50;;;;;;4811404;54;21014;-38
2021/05/23 00:12:13;;;;;;;17.95;14.87;;;22.60;52.50;;;;;;4819885;54;21063;-38
2021/05/23 00:17:14;;;;;;;16.35;14.05;;;22.60;52.50;;;;;;4825917;54;22484;-37
2021/05/23 00:22:15;;;;;;;17.23;14.18;;;22.60;52.50;;;;;;4806112;54;21075;-34
2021/05/23 00:27:16;;;;;;;17.35;13.57;;;22.60;52.50;;;;;;4808874;54;21524;-39
2021/05/23 00:32:17;;;;;;;18.87;14.43;;;22.60;52.40;;;;;;4794745;58;21070;-39
2021/05/23 00:37:18;;;;;;;17.60;14.82;;;22.60;52.50;;;;;;4795139;54;21521;-39
2021/05/23 00:42:18;;;;;;;16.87;14.70;;;22.60;52.50;;;;;;4793979;58;21006;-39
2021/05/23 00:47:19;;;;;;;17.67;14.57;;;22.60;52.40;;;;;;4848855;54;21026;-38
2021/05/23 00:52:21;;;;;;;17.90;13.95;;;22.60;52.40;;;;;;4820756;54;21130;-38
2021/05/23 00:57:21;;;;;;;17.05;13.32;;;22.60;52.40;;;;;;4800239;54;20995;-39
2021/05/23 01:02:46;;;;;;;17.02;14.50;;;22.60;52.40;;;;;;4794035;58;21023;-39
2021/05/23 01:07:48;;;;;;;15.90;13.30;;;22.60;52.30;;;;;;4804880;54;21008;-37
2021/05/23 01:14:41;;;;;;;15.60;13.52;;;22.60;52.30;;;;;;4805026;54;20980;-37
2021/05/23 01:21:43;;;;;;;16.35;13.05;;;22.60;52.30;;;;;;4810230;54;21003;-38
2021/05/23 01:26:49;;;;;;;15.73;12.77;;;22.60;52.30;;;;;;4842558;54;21458;-49
2021/05/23 01:31:52;;;;;;;15.43;12.90;;;22.60;52.30;;;;;;4837544;54;21544;-38
2021/05/23 01:36:57;;;;;;;15.52;12.40;;;22.60;52.20;;;;;;4793336;58;21102;-34
2021/05/23 01:41:59;;;;;;;14.23;12.30;;;22.50;52.20;;;;;;4831405;54;21086;-38
2021/05/23 01:47:00;;;;;;;16.10;12.52;;;22.60;52.20;;;;;;4803740;54;21345;-39
2021/05/23 01:52:00;;;;;;;14.52;12.15;;;22.60;52.20;;;;;;4805531;54;21003;-38
2021/05/23 01:57:02;;;;;;;15.05;12.82;;;22.60;52.20;;;;;;4794222;55;21545;-38
2021/05/23 02:02:03;;;;;;;15.13;11.93;;;22.60;52.70;;;;;;4859176;54;21127;-38
2021/05/23 02:07:04;;;;;;;14.02;12.20;;;22.50;52.00;;;;;;4805386;54;21130;-38
2021/05/23 02:12:05;;;;;;;14.25;12.20;;;22.60;52.10;;;;;;4830336;54;20996;-38
2021/05/23 02:17:06;;;;;;;14.60;12.05;;;22.60;52.60;;;;;;4794626;58;21090;-38
2021/05/23 02:22:08;;;;;;;14.98;11.63;;;22.50;52.00;;;;;;4803470;54;21066;-38
2021/05/23 02:27:10;;;;;;;13.18;11.45;;;22.50;52.00;;;;;;4840944;54;21605;-39
2021/05/23 02:32:10;;;;;;;15.02;12.13;;;22.50;51.90;;;;;;4824099;54;21509;-39
2021/05/23 02:37:11;;;;;;;14.98;12.13;;;22.50;51.90;;;;;;4793863;54;21106;-36
2021/05/23 02:42:12;;;;;;;13.32;10.93;;;22.60;52.00;;;;;;4802729;54;21068;-38
2021/05/23 02:47:13;;;;;;;13.25;11.12;;;22.50;51.90;;;;;;4829805;54;21055;-39
2021/05/23 02:52:14;;;;;;;12.25;10.32;;;22.60;52.00;;;;;;4802642;54;21500;-37
2021/05/23 02:57:15;;;;;;;11.85;10.35;;;22.50;51.90;;;;;;4829240;54;20999;-39
2021/05/23 03:02:16;;;;;;;15.63;11.45;;;22.60;52.00;;;;;;4797745;54;21075;-40
2021/05/23 03:07:16;;;;;;;12.77;11.15;;;22.50;51.90;;;;;;4835422;54;20999;-37
2021/05/23 03:12:17;;;;;;;14.00;11.48;;;22.50;51.90;;;;;;4793839;58;20975;-39
2021/05/23 03:17:18;;;;;;;11.73;10.50;;;22.50;51.90;;;;;;4821544;54;21011;-40
2021/05/23 03:22:19;;;;;;;14.55;10.98;;;22.60;52.00;;;;;;4806789;54;21052;-36
2021/05/23 03:27:20;;;;;;;13.48;11.10;;;22.50;51.90;;;;;;4794415;58;21007;-39
2021/05/23 03:32:21;;;;;;;12.63;10.77;;;22.50;51.90;;;;;;4815106;54;21003;-40
2021/05/23 03:37:22;;;;;;;12.13;9.90;;;22.60;52.00;;;;;;4795361;54;21055;-37
2021/05/23 03:42:22;;;;;;;12.85;10.38;;;22.60;52.00;;;;;;4832558;54;21133;-40
2021/05/23 03:47:23;;;;;;;12.23;10.40;;;22.50;51.90;;;;;;4837686;54;21027;-39
2021/05/23 03:52:24;;;;;;;11.38;9.70;;;22.50;51.90;;;;;;4795024;54;21466;-37
2021/05/23 03:57:25;;;;;;;11.18;9.93;;;22.50;51.90;;;;;;4803498;54;20983;-36
2021/05/23 04:02:26;;;;;;;11.65;9.45;;;22.50;51.90;;;;;;4794286;54;21529;-41
2021/05/23 04:07:27;;;;;;;11.35;10.00;;;22.60;52.00;;;;;;4812415;54;21009;-36
2021/05/23 04:12:34;;;;;;;10.68;9.07;;;22.60;51.90;;;;;;4810215;54;21502;-36
2021/05/23 04:17:36;;;;;;;11.23;9.25;;;22.50;51.90;;;;;;4813813;54;21517;-37
2021/05/23 04:22:38;;;;;;;11.90;9.82;;;22.50;51.90;;;;;;4813101;54;21053;-38
2021/05/23 04:27:40;;;;;;;10.52;9.23;;;22.60;52.00;;;;;;4798603;54;20991;-39
2021/05/23 04:32:41;;;;;;;10.65;9.55;;;22.50;51.90;;;;;;4799470;54;21069;-34
2021/05/23 04:37:43;;;;;;;11.52;9.55;;;22.50;52.10;;;;;;4807731;54;21576;-39
2021/05/23 04:42:47;;;;;;;12.07;9.27;;;22.50;51.90;;;;;;4794307;55;21076;-39
2021/05/23 04:47:49;;;;;;;10.98;9.32;;;22.50;51.90;;;;;;4794641;55;20995;-37
2021/05/23 04:52:50;;;;;;;10.20;8.88;;;22.50;51.90;;;;;;4809402;54;21019;-41
2021/05/23 04:57:51;;;;;;;10.98;9.05;;;22.50;51.90;;;;;;4822915;54;21055;-39
2021/05/23 05:02:51;;;;;;;10.07;8.98;;;22.50;51.90;;;;;;4793523;55;21018;-38
2021/05/23 05:07:52;;;;;;;10.00;8.30;;;22.50;51.90;;;;;;4802283;54;21004;-37
2021/05/23 05:12:53;;;;;;;10.07;8.57;;;22.50;51.90;;;;;;4849999;54;21008;-37
2021/05/23 05:17:54;;;;;;;9.20;7.90;;;22.50;51.80;;;;;;4804443;54;20995;-39
2021/05/23 05:22:55;;;;;;;11.05;8.85;;;22.50;51.80;;;;;;4805854;54;21010;-36
2021/05/23 05:27:56;;;;;;;11.90;9.10;;;22.50;51.80;;;;;;4818199;54;20981;-37
2021/05/23 05:32:58;;;;;;;9.98;8.20;;;22.50;51.80;;;;;;4796669;54;21529;-38
2021/05/23 05:37:59;;;;;;;9.63;8.63;;;22.50;51.80;;;;;;4804832;54;21486;-36
2021/05/23 05:43:00;;;;;;;9.82;8.80;;;22.50;52.50;;;;;;4847321;54;21015;-34
2021/05/23 05:48:01;;;;;;;9.50;8.50;;;22.60;51.80;;;;;;4813981;54;21628;-35
2021/05/23 05:53:02;;;;;;;9.88;8.40;;;22.50;51.80;;;;;;4800504;54;20995;-37
2021/05/23 05:58:03;;;;;;;9.88;8.45;;;22.50;51.80;;;;;;4798286;54;20995;-41
2021/05/23 06:03:05;;;;;;;9.57;7.85;;;22.50;51.80;;;;;;4804583;54;21030;-35
2021/05/23 06:08:06;;;;;;;9.75;8.68;;;22.50;51.80;;;;;;4829792;54;21036;-38
2021/05/23 06:13:07;;;;;;;10.02;8.55;;;22.50;51.80;;;;;;4794942;54;21019;-35
2021/05/23 06:18:08;;;;;;;8.60;7.70;;;22.50;51.80;;;;;;4812451;54;21130;-39
2021/05/23 06:23:09;;;;;;;10.25;8.52;;;22.50;51.80;;;;;;4814915;54;21079;-38
2021/05/23 06:28:10;;;;;;;9.52;8.52;;;22.50;51.70;;;;;;4817032;54;21486;-36
2021/05/23 06:33:11;;;;;;;11.30;8.57;;;22.50;51.80;;;;;;4813009;54;21521;-37
2021/05/23 06:38:11;;;;;;;9.38;8.35;;;22.50;51.70;;;;;;4818994;54;21525;-38
2021/05/23 06:43:12;;;;;;;10.95;8.98;;;22.50;51.70;;;;;;4811968;54;21600;-32
2021/05/23 06:48:16;;;;;;;9.15;8.18;;;22.50;51.70;;;;;;4814337;54;20983;-32
2021/05/23 06:53:17;;;;;;;9.77;8.38;;;22.50;51.80;;;;;;4840998;54;21011;-37
2021/05/23 06:58:18;;;;;;;9.30;8.25;;;22.50;51.70;;;;;;4826790;54;21541;-36
2021/05/23 07:03:18;;;;;;;9.57;8.15;;;22.50;51.80;;;;;;4810638;54;21074;-38
2021/05/23 07:08:20;;;;;;;9.63;8.30;;;22.50;51.70;;;;;;4803088;54;21095;-37
2021/05/23 07:13:23;;;;;;;9.07;8.10;;;22.50;51.80;;;;;;4817480;54;21018;-38
2021/05/23 07:18:24;;;;;;;10.38;8.77;;;22.50;51.70;;;;;;4794129;58;21687;-34
2021/05/23 07:23:25;;;;;;;9.93;8.15;;;22.50;52.40;;;;;;4816664;54;22184;-47
2021/05/23 07:28:26;;;;;;;9.73;8.27;;;22.50;51.80;;;;;;4806131;54;22318;-38
2021/05/23 07:33:27;;;;;;;10.73;8.95;;;22.50;51.70;;;;;;4794376;54;21062;-39
2021/05/23 07:38:27;;;;;;;9.75;8.20;;;22.50;51.70;;;;;;4793532;58;21438;-32
2021/05/23 07:43:28;;;;;;;10.57;8.50;;;22.50;51.80;;;;;;4795665;54;21027;-37
2021/05/23 07:48:30;;;;;;;9.45;8.45;;;22.50;51.70;;;;;;4794346;55;21137;-39
2021/05/23 07:53:31;;;;;;;9.73;8.60;;;22.50;52.30;;;;;;4819752;54;21480;-37
2021/05/23 07:58:32;;;;;;;10.00;8.10;;;22.50;51.70;;;;;;4807834;54;21052;-47
2021/05/23 08:03:33;;;;;;;9.65;7.87;;;22.50;51.80;;;;;;4868384;54;21002;-37
2021/05/23 08:08:35;;;;;;;9.95;8.90;;;22.50;51.80;;;;;;4804476;54;21039;-40
2021/05/23 08:13:36;;;;;;;9.60;8.30;;;22.50;51.70;;;;;;4832932;54;21039;-37
2021/05/23 08:18:38;;;;;;;10.95;8.95;;;22.50;51.80;;;;;;4821421;54;21018;-41
2021/05/23 08:23:39;;;;;;;9.45;8.45;;;22.50;51.70;;;;;;4830980;54;21462;-39
2021/05/23 08:28:40;;;;;;;8.88;7.87;;;22.50;51.70;;;;;;4794376;58;21027;-46
2021/05/23 08:33:41;;;;;;;9.88;8.65;;;22.50;51.70;;;;;;4796156;54;21180;-40
2021/05/23 08:38:42;;;;;;;10.25;8.93;;;22.50;51.80;;;;;;4800540;54;21071;-37
2021/05/23 08:43:45;;;;;;;12.77;8.88;;;22.50;51.70;;;;;;4793802;54;21071;-39
2021/05/23 08:48:47;;;;;;;10.48;8.73;;;22.50;51.80;;;;;;4794328;58;21482;-40
2021/05/23 08:53:48;;;;;;;10.15;9.05;;;22.50;51.70;;;;;;4801893;54;20995;-38
2021/05/23 08:58:49;;;;;;;12.18;9.00;;;22.50;51.70;;;;;;4825991;54;20999;-37
2021/05/23 09:04:09;;;;;;;10.35;8.65;;;22.50;51.70;;;;;;4820733;54;21493;-39
2021/05/23 09:09:12;;;;;;;10.13;8.48;;;22.50;51.70;;;;;;4794073;58;21603;-39
2021/05/23 09:14:12;;;;;;;11.05;9.27;;;22.50;51.70;;;;;;4821892;54;20987;-40
2021/05/23 09:19:13;;;;;;;12.18;9.73;;;22.50;51.70;;;;;;4798807;54;20999;-38
2021/05/23 09:24:14;;;;;;;10.93;9.07;;;22.50;51.70;;;;;;4835102;54;21042;-40
2021/05/23 09:29:18;;;;;;;11.05;9.50;;;22.50;51.70;;;;;;4797078;54;21003;-39
2021/05/23 09:34:24;;;;;;;11.07;9.20;;;22.50;51.70;;;;;;4864310;54;21101;-37
2021/05/23 09:39:36;;;;;;;10.97;9.47;;;22.50;51.70;;;;;;4842261;54;21486;-36
2021/05/23 09:44:37;;;;;;;9.75;8.75;;;22.60;51.80;;;;;;4802451;54;21111;-35
2021/05/23 09:49:50;;;;;;;11.35;9.18;;;22.50;51.70;;;;;;4821350;54;21071;-38
2021/05/23 09:54:53;;;;;;;11.00;9.63;;;22.60;51.80;;;;;;4820926;54;21564;-38
2021/05/23 10:00:06;;;;;;;11.77;9.80;;;22.60;51.80;;;;;;4832038;54;21449;-40
2021/05/23 10:05:08;;;;;;;10.40;9.30;;;22.60;51.80;;;;;;4801273;54;21485;-44
2021/05/23 10:10:10;;;;;;;10.75;8.70;;;22.60;51.80;;;;;;4794017;58;21018;-40
2021/05/23 10:15:12;;;;;;;9.40;8.43;;;22.60;51.80;;;;;;4800098;54;20975;-37
2021/05/23 10:20:13;;;;;;;11.98;9.60;;;22.60;51.80;;;;;;4823433;54;21092;-39
2021/05/23 10:25:15;;;;;;;12.57;9.55;;;22.60;51.80;;;;;;4815347;54;21066;-38
2021/05/23 10:30:16;;;;;;;10.27;9.15;;;22.60;51.80;;;;;;4793739;58;21079;-39
2021/05/23 10:35:26;;;;;;;10.50;9.25;;;22.60;51.90;;;;;;4816853;54;21016;-38
2021/05/23 10:40:30;;;;;;;10.55;9.25;;;22.60;51.90;;;;;;4799508;54;21457;-38
2021/05/23 10:45:38;;;;;;;10.82;9.00;;;22.60;51.80;;;;;;4825571;54;21473;-40
2021/05/23 10:50:40;;;;;;;10.85;8.98;;;22.60;51.90;;;;;;4813035;54;21578;-37
2021/05/23 10:55:49;;;;;;;9.85;8.85;;;22.60;51.90;;;;;;4817591;54;21082;-35
2021/05/23 11:00:55;;;;;;;11.85;8.98;;;22.60;51.90;;;;;;4811460;54;21023;-39
2021/05/23 11:06:07;;;;;;;9.45;8.50;;;22.60;51.90;;;;;;4795633;54;20969;-39
2021/05/23 11:11:20;;;;;;;9.32;8.40;;;22.60;51.90;;;;;;4826395;54;21063;-36
2021/05/23 11:16:20;;;;;;;10.20;9.05;;;22.60;51.90;;;;;;4825033;54;21015;-37
2021/05/23 11:21:21;;;;;;;10.13;9.00;;;22.60;51.90;;;;;;4817376;54;21790;-38
2021/05/23 11:26:25;;;;;;;10.43;8.80;;;22.60;51.90;;;;;;4852993;54;21339;-36
2021/05/23 11:31:37;;;;;;;9.45;8.55;;;22.60;51.80;;;;;;4833666;54;21572;-44
2021/05/23 11:36:41;;;;;;;10.23;8.93;;;22.70;51.90;;;;;;4804863;54;21102;-39
2021/05/23 11:41:45;;;;;;;10.38;9.27;;;22.60;51.90;;;;;;4803519;54;21533;-34
2021/05/23 11:46:51;;;;;;;10.68;9.52;;;22.70;51.90;;;;;;4793288;58;21069;-37
2021/05/23 11:52:01;;;;;;;9.77;8.77;;;22.60;51.90;;;;;;4797354;54;21469;-39
2021/05/23 11:57:04;;;;;;;10.18;8.65;;;22.70;51.90;;;;;;4830930;54;21496;-48
2021/05/23 12:02:04;;;;;;;10.98;9.05;;;22.70;52.00;;;;;;4793162;58;21521;-38
2021/05/23 12:07:05;;;;;;;10.05;9.05;;;22.70;51.90;;;;;;4807859;54;21089;-40
2021/05/23 12:12:10;;;;;;;10.50;9.27;;;22.60;51.90;;;;;;4792895;58;21552;-39
2021/05/23 12:17:16;;;;;;;10.32;9.30;;;22.60;51.90;;;;;;4802915;54;21164;-39
2021/05/23 12:22:26;;;;;;;11.50;10.30;;;22.60;51.90;;;;;;4794265;54;20999;-39
2021/05/23 12:27:35;;;;;;;10.40;9.27;;;22.60;51.90;;;;;;4805986;54;21488;-39
2021/05/23 12:33:18;;;;;;;10.40;9.30;;;22.70;52.00;;;;;;4796105;54;21079;-39
2021/05/23 12:38:19;;;;;;;11.63;9.98;;;22.70;51.90;;;;;;4794785;54;21505;-41
2021/05/23 12:43:26;;;;;;;10.68;9.50;;;22.70;52.00;;;;;;4793046;55;21014;-36
2021/05/23 12:48:46;;;;;;;11.30;10.10;;;22.70;52.00;;;;;;4794822;54;21015;-38
2021/05/23 12:53:53;;;;;;;11.50;10.30;;;22.70;52.00;;;;;;4831562;54;21003;-43
2021/05/23 12:59:11;;;;;;;10.67;9.57;;;22.70;52.60;;;;;;4804409;54;21474;-38
2021/05/23 13:04:23;;;;;;;11.70;10.25;;;22.70;52.00;;;;;;4793185;58;21063;-38
2021/05/23 13:09:38;;;;;;;11.57;10.40;;;22.70;52.00;;;;;;4836289;54;21015;-41
2021/05/23 13:14:55;;;;;;;12.40;11.02;;;22.70;52.00;;;;;;4867331;54;21624;-40
2021/05/23 13:19:57;;;;;;;11.40;10.20;;;22.70;52.00;;;;;;4808018;54;22164;-39
2021/05/23 13:24:59;;;;;;;12.63;10.70;;;22.70;52.00;;;;;;4809793;54;21482;-39
2021/05/23 13:30:01;;;;;;;13.27;11.02;;;22.70;52.00;;;;;;4811460;54;21969;-40
2021/05/23 13:35:02;;;;;;;11.82;10.63;;;22.70;52.00;;;;;;4875908;54;21521;-42
2021/05/23 13:40:05;;;;;;;14.30;12.25;;;22.70;52.00;;;;;;4794061;58;20999;-40
2021/05/23 13:45:07;;;;;;;12.65;11.02;;;22.70;52.00;;;;;;4809960;54;21027;-40
2021/05/23 13:50:09;;;;;;;13.85;11.48;;;22.70;52.00;;;;;;4803715;54;21555;-38
2021/05/23 13:55:11;;;;;;;12.82;11.50;;;22.70;52.00;;;;;;4803317;54;21018;-39
2021/05/23 14:00:13;;;;;;;13.73;12.18;;;22.70;51.90;;;;;;4809078;54;21039;-38
2021/05/23 14:05:15;;;;;;;14.32;12.55;;;22.70;52.00;;;;;;4800790;54;20984;-40
2021/05/23 14:10:16;;;;;;;13.38;11.75;;;22.70;51.90;;;;;;4799514;54;21526;-40
2021/05/23 14:15:16;;;;;;;13.77;12.27;;;22.70;52.40;;;;;;4848474;54;20975;-40
2021/05/23 14:20:23;;;;;;;13.73;11.98;;;22.70;51.90;;;;;;4801145;54;21030;-40
2021/05/23 14:25:28;;;;;;;14.77;12.50;;;22.70;51.90;;;;;;4805135;54;20987;-40
2021/05/23 14:30:29;;;;;;;14.02;12.50;;;22.70;51.90;;;;;;4812202;54;21014;-42
2021/05/23 14:35:30;;;;;;;13.25;11.95;;;22.70;51.90;;;;;;4808198;54;21129;-38
2021/05/23 14:40:33;;;;;;;13.52;12.05;;;22.70;51.90;;;;;;4818421;54;21016;-35
2021/05/23 14:45:34;;;;;;;13.65;11.98;;;22.70;51.90;;;;;;4809655;54;21445;-34
2021/05/23 14:50:37;;;;;;;14.70;12.40;;;22.70;51.90;;;;;;4805852;54;20984;-38
2021/05/23 14:55:39;;;;;;;16.23;13.57;;;22.70;51.80;;;;;;4819300;54;21142;-38
2021/05/23 15:00:39;;;;;;;15.32;12.37;;;22.70;51.90;;;;;;4832469;54;21488;-40
2021/05/23 15:05:40;;;;;;;15.00;13.40;;;22.70;51.80;;;;;;4806149;54;21051;-38
2021/05/23 15:10:41;;;;;;;14.70;13.15;;;22.70;51.80;;;;;;4805733;54;21078;-39
2021/05/23 15:15:42;;;;;;;15.02;13.23;;;22.70;52.60;;;;;;4794592;58;21059;-40
2021/05/23 15:20:46;;;;;;;14.07;12.57;;;22.70;51.80;;;;;;4819444;54;21603;-39
2021/05/23 15:25:47;;;;;;;15.00;13.07;;;22.70;51.90;;;;;;4801868;54;21514;-39
2021/05/23 15:31:00;;;;;;;15.77;13.90;;;22.70;51.80;;;;;;4802581;54;21469;-38
2021/05/23 15:36:01;;;;;;;16.67;13.68;;;22.80;51.90;;;;;;4810992;54;21497;-37
2021/05/23 15:41:01;;;;;;;14.95;13.35;;;22.70;51.80;;;;;;4815081;54;21043;-39
2021/05/23 15:46:02;;;;;;;15.85;13.75;;;22.80;51.80;;;;;;4809938;54;21075;-38
2021/05/23 15:51:03;;;;;;;15.88;14.25;;;22.80;51.90;;;;;;4804774;54;21592;-37
2021/05/23 15:56:04;;;;;;;16.05;14.35;;;22.80;51.80;;;;;;4794711;54;21070;-41
2021/05/23 16:01:05;;;;;;;14.77;13.20;;;22.80;51.80;;;;;;4837481;54;21460;-38
2021/05/23 16:06:06;;;;;;;15.98;13.95;;;22.80;51.90;;;;;;4796793;54;21015;-40
2021/05/23 16:11:07;;;;;;;16.83;14.70;;;22.80;51.90;;;;;;4811209;54;21087;-39
2021/05/23 16:16:08;;;;;;;16.10;14.40;;;22.80;51.90;;;;;;4799575;54;21110;-44
2021/05/23 16:21:11;;;;;;;15.48;13.88;;;22.80;51.90;;;;;;4828208;54;21023;-40
2021/05/23 16:26:12;;;;;;;15.10;13.52;;;22.80;51.90;;;;;;4819476;54;21030;-37
2021/05/23 16:31:13;;;;;;;16.75;14.95;;;22.80;51.90;;;;;;4812270;54;21074;-38
2021/05/23 16:36:14;;;;;;;17.25;15.02;;;22.80;51.90;;;;;;4803346;54;21031;-38
2021/05/23 16:41:15;;;;;;;15.48;13.93;;;22.80;51.90;;;;;;4809712;54;21938;-41
2021/05/23 16:46:16;;;;;;;15.93;14.13;;;22.80;51.90;;;;;;4811836;54;21099;-34
2021/05/23 16:51:17;;;;;;;16.62;14.87;;;22.80;51.90;;;;;;4810874;54;21545;-39
2021/05/23 16:56:18;;;;;;;17.50;15.70;;;22.80;51.90;;;;;;4795309;54;21094;-38
2021/05/23 17:01:19;;;;;;;16.00;14.30;;;22.80;51.90;;;;;;4795295;54;21087;-40
2021/05/23 17:06:20;;;;;;;16.67;14.87;;;22.80;52.00;;;;;;4809922;54;21103;-37
2021/05/23 17:11:21;;;;;;;15.82;14.23;;;22.80;52.00;;;;;;4810674;54;21111;-40
2021/05/23 17:16:22;;;;;;;17.48;15.63;;;22.80;52.00;;;;;;4827489;54;21572;-41
2021/05/23 17:21:22;;;;;;;15.52;13.85;;;22.80;52.00;;;;;;4801528;54;21317;-43
2021/05/23 17:26:23;;;;;;;17.60;15.80;;;22.80;52.00;;;;;;4796893;54;21066;-31
2021/05/23 17:31:24;;;;;;;16.45;14.75;;;22.80;52.00;;;;;;4813505;54;21102;-36
2021/05/23 17:36:25;;;;;;;16.52;14.82;;;22.80;52.00;;;;;;4812229;54;21095;-37
2021/05/23 17:41:26;;;;;;;16.98;14.85;;;22.80;52.00;;;;;;4819630;54;21481;-38
2021/05/23 17:46:26;;;;;;;17.73;15.60;;;22.80;52.00;;;;;;4814834;54;21074;-39
2021/05/23 17:51:27;;;;;;;17.08;15.27;;;22.80;52.00;;;;;;4815673;54;21104;-41
2021/05/23 17:56:28;;;;;;;17.12;15.07;;;22.80;52.00;;;;;;4799402;54;21021;-48
2021/05/23 18:01:29;;;;;;;17.05;15.20;;;22.80;52.00;;;;;;4815275;54;21074;-38
2021/05/23 18:06:30;;;;;;;17.15;15.35;;;22.80;52.00;;;;;;4819750;54;20984;-45
2021/05/23 18:11:31;;;;;;;18.35;16.37;;;22.80;52.10;;;;;;4801130;54;21043;-45
2021/05/23 18:16:34;;;;;;;17.35;15.23;;;22.80;52.10;;;;;;4807612;54;21458;-38
2021/05/23 18:21:34;;;;;;;16.35;14.65;;;22.80;52.10;;;;;;4825817;54;21561;-40
2021/05/23 18:26:35;;;;;;;17.27;15.38;;;22.80;52.10;;;;;;4805178;54;20995;-40
2021/05/23 18:31:36;;;;;;;19.27;17.17;;;22.80;52.20;;;;;;4796801;54;21488;-38
2021/05/23 18:36:37;;;;;;;17.35;15.55;;;22.80;52.20;;;;;;4799637;54;21138;-38
2021/05/23 18:41:39;;;;;;;19.23;16.70;;;22.80;52.20;;;;;;4794691;58;21492;-47
2021/05/23 18:46:40;;;;;;;19.10;17.10;;;22.80;52.20;;;;;;4794375;54;21446;-42
2021/05/23 18:51:41;;;;;;;19.98;17.10;;;22.80;52.30;;;;;;4801446;54;21070;-40
2021/05/23 18:56:42;;;;;;;18.37;16.40;;;22.80;52.30;;;;;;4816017;54;21042;-47
2021/05/23 19:01:43;;;;;;;20.15;17.95;;;22.80;52.30;;;;;;4803438;54;21007;-36
2021/05/23 19:06:44;;;;;;;18.50;16.50;;;22.80;52.30;;;;;;4832844;54;21057;-37
2021/05/23 19:11:45;;;;;;;20.23;17.27;;;22.80;52.30;;;;;;4816636;54;21002;-40
2021/05/23 19:16:46;;;;;;;18.02;16.08;;;22.80;52.30;;;;;;4794104;58;21556;-34
2021/05/23 19:21:48;;;;;;;18.98;16.98;;;22.80;52.40;;;;;;4794736;55;21050;-37
2021/05/23 19:26:49;;;;;;;19.25;17.27;;;22.80;53.00;;;;;;4809801;54;20995;-36
2021/05/23 19:31:50;;;;;;;20.83;17.95;;;22.80;52.40;;;;;;4794150;58;21007;-39
2021/05/23 19:36:51;;;;;;;19.83;17.55;;;22.80;52.30;;;;;;4802984;54;21126;-36
2021/05/23 19:41:52;;;;;;;21.42;18.98;;;22.80;52.30;;;;;;4803155;54;21084;-39
2021/05/23 19:46:52;;;;;;;19.62;17.35;;;22.80;52.50;;;;;;4794160;55;21018;-39
2021/05/23 19:51:53;;;;;;;20.90;18.67;;;22.80;52.40;;;;;;4813806;54;21089;-36
2021/05/23 19:56:54;;;;;;;21.15;18.67;;;22.80;52.40;;;;;;4841522;54;21083;-39
2021/05/23 20:01:55;;;;;;;20.85;18.65;;;22.80;52.40;;;;;;4824460;54;21043;-39
2021/05/23 20:06:56;;;;;;;20.55;18.35;;;22.80;52.40;;;;;;4814320;54;22201;-45
2021/05/23 20:11:57;;;;;;;20.95;18.75;;;22.80;52.40;;;;;;4815571;54;21047;-32
2021/05/23 20:16:58;;;;;;;21.65;18.55;;;22.80;52.30;;;;;;4794578;55;21497;-38
2021/05/23 20:21:59;;;;;;;21.00;18.83;;;22.80;52.40;;;;;;4829535;54;20991;-39
2021/05/23 20:27:00;;;;;;;20.33;18.08;;;22.80;52.30;;;;;;4889499;54;21007;-40
2021/05/23 20:32:01;;;;;;;21.23;18.70;;;22.80;52.30;;;;;;4793857;58;21026;-32
2021/05/23 20:37:01;;;;;;;20.80;18.45;;;22.80;52.40;;;;;;4810290;54;21070;-39
2021/05/23 20:42:03;;;;;;;21.27;19.08;;;22.80;52.40;;;;;;4814911;54;21077;-40
2021/05/23 20:47:04;;;;;;;20.17;17.85;;;22.80;52.40;;;;;;4799397;54;21003;-39
2021/05/23 20:52:06;;;;;;;20.50;18.25;;;22.80;52.30;;;;;;4814271;54;20979;-38
2021/05/23 20:57:06;;;;;;;20.30;18.10;;;22.80;52.40;;;;;;4826866;54;21023;-39
2021/05/23 21:02:09;;;;;;;20.42;18.23;;;22.80;52.40;;;;;;4797415;54;21489;-38
2021/05/23 21:07:10;;;;;;;20.25;17.90;;;22.80;52.40;;;;;;4851170;54;22257;-46
2021/05/23 21:12:11;;;;;;;19.98;17.87;;;22.80;52.40;;;;;;4804048;54;21133;-38
2021/05/23 21:17:13;;;;;;;20.65;18.33;;;22.80;52.40;;;;;;4794149;58;21047;-40
2021/05/23 21:22:13;;;;;;;19.95;17.48;;;22.80;52.40;;;;;;4794154;58;21039;-39
2021/05/23 21:27:14;;;;;;;19.87;17.77;;;22.80;52.40;;;;;;4806665;54;21320;-41
2021/05/23 21:32:15;;;;;;;19.42;17.33;;;22.80;52.40;;;;;;4846866;54;22009;-38
2021/05/23 21:37:16;;;;;;;19.65;17.65;;;22.80;52.40;;;;;;4815492;54;21122;-40
2021/05/23 21:42:17;;;;;;;21.87;18.05;;;22.80;52.50;;;;;;4816354;54;21011;-40
2021/05/23 21:47:18;;;;;;;18.65;16.65;;;22.80;52.40;;;;;;4893221;54;20999;-33
2021/05/23 21:52:19;;;;;;;19.42;16.83;;;22.80;52.40;;;;;;4813889;54;21059;-38
2021/05/23 21:57:19;;;;;;;19.95;17.80;;;22.80;52.40;;;;;;4808915;54;21058;-39
2021/05/23 22:02:20;;;;;;;18.50;16.60;;;22.80;52.40;;;;;;4796014;54;21489;-37
2021/05/23 22:07:21;;;;;;;19.75;17.37;;;22.80;52.40;;;;;;4814813;54;21003;-39
2021/05/23 22:12:22;;;;;;;18.98;16.98;;;22.80;52.40;;;;;;4794883;58;21023;-38
2021/05/23 22:17:23;;;;;;;18.75;16.75;;;22.80;52.40;;;;;;4811481;54;21043;-35
2021/05/23 22:22:24;;;;;;;17.67;15.77;;;22.80;52.40;;;;;;4799041;54;21004;-38
2021/05/23 22:27:24;;;;;;;18.02;16.15;;;22.80;52.40;;;;;;4800605;54;21007;-37
2021/05/23 22:32:26;;;;;;;17.83;15.93;;;22.80;52.40;;;;;;4813045;54;21498;-35
2021/05/23 22:37:26;;;;;;;17.85;16.15;;;22.80;52.40;;;;;;4852065;54;21024;-37
2021/05/23 22:42:27;;;;;;;18.20;16.30;;;22.80;52.40;;;;;;4826480;54;21007;-36
2021/05/23 22:47:30;;;;;;;17.42;15.40;;;22.80;52.40;;;;;;4807369;54;21501;-37
2021/05/23 22:52:30;;;;;;;17.58;15.70;;;22.80;52.40;;;;;;4794848;55;21537;-36
2021/05/23 22:57:31;;;;;;;18.27;16.35;;;22.80;52.50;;;;;;4833234;54;20991;-36
2021/05/23 23:02:34;;;;;;;16.92;15.07;;;22.80;52.40;;;;;;4794001;58;21034;-38
2021/05/23 23:07:35;;;;;;;17.08;15.27;;;22.80;52.40;;;;;;4794296;58;21047;-39
2021/05/23 23:12:36;;;;;;;17.60;15.77;;;22.80;52.40;;;;;;4794525;58;21927;-38
2021/05/23 23:17:37;;;;;;;16.40;14.75;;;22.80;52.40;;;;;;4794018;58;21007;-38
2021/05/23 23:22:38;;;;;;;17.20;15.40;;;22.80;52.40;;;;;;4813290;54;21130;-38
2021/05/23 23:27:40;;;;;;;16.75;15.00;;;22.80;52.40;;;;;;4813741;54;21071;-33
2021/05/23 23:32:41;;;;;;;16.65;14.90;;;22.80;52.40;;;;;;4823129;54;21475;-34
2021/05/23 23:37:42;;;;;;;16.42;14.70;;;22.80;52.40;;;;;;4793402;58;21059;-39
2021/05/23 23:42:43;;;;;;;15.70;14.02;;;22.80;52.40;;;;;;4802544;54;21011;-36
2021/05/23 23:47:44;;;;;;;15.38;13.77;;;22.80;52.40;;;;;;4814757;54;21163;-38
2021/05/23 23:52:45;;;;;;;16.35;14.65;;;22.80;52.40;;;;;;4815486;54;21074;-37
2021/05/23 23:57:48;;;;;;;16.55;14.85;;;22.80;52.40;;;;;;4796785;54;21125;-41
